Time;durP1;ratioP1;P1;durP2;ratioP2;P2;SDS_P1;SDS_P2;PMS_P1;PMS_P2;Temp;Humidity;BMP_temperature;BMP_pressure;BME280_temperature;BME280_humidity;BME280_pressure;Samples;Min_cycle;Max_cycle;Signal;HPM_P1;HPM_P2
2021/07/21 00:00:14;;;;;;;7.53;4.88;;;17.40;99.90;;;;;;4189340;28;20041;-64
2021/07/21 00:02:16;;;;;;;7.10;5.00;;;17.40;99.90;;;;;;4190192;28;20086;-65
2021/07/21 00:04:17;;;;;;;5.55;3.85;;;17.30;99.90;;;;;;4190302;28;20025;-65
2021/07/21 00:06:18;;;;;;;9.30;5.05;;;17.40;99.90;;;;;;4190860;28;20110;-63
2021/07/21 00:08:19;;;;;;;7.22;4.22;;;17.40;99.90;;;;;;4189573;28;20576;-62
2021/07/21 00:10:22;;;;;;;9.13;4.85;;;17.40;99.90;;;;;;4191174;28;20366;-62
2021/07/21 00:14:43;;;;;;;6.00;3.78;;;17.30;99.90;;;;;;4190233;28;20107;-62
2021/07/21 00:16:57;;;;;;;9.30;3.75;;;17.20;99.90;;;;;;4190158;28;20086;-60
2021/07/21 00:19:05;;;;;;;7.32;4.10;;;17.20;99.90;;;;;;4191414;28;20425;-62
2021/07/21 00:21:06;;;;;;;14.73;4.53;;;17.20;99.90;;;;;;4189411;28;20110;-63
2021/07/21 00:23:07;;;;;;;6.78;4.00;;;17.10;99.90;;;;;;4190200;28;20028;-61
2021/07/21 00:25:12;;;;;;;6.63;4.38;;;17.10;99.90;;;;;;4189304;28;20527;-61
2021/07/21 00:27:13;;;;;;;8.13;5.60;;;17.10;99.90;;;;;;4190809;28;20098;-61
2021/07/21 00:29:14;;;;;;;6.60;5.03;;;17.00;99.90;;;;;;4189368;28;20527;-61
2021/07/21 00:31:16;;;;;;;6.38;3.92;;;17.00;99.90;;;;;;4191574;28;20028;-61
2021/07/21 00:33:18;;;;;;;5.57;4.32;;;17.00;99.90;;;;;;4190249;28;20036;-62
2021/07/21 00:35:19;;;;;;;5.88;4.60;;;17.00;99.90;;;;;;4190503;28;20044;-62
2021/07/21 00:37:20;;;;;;;6.65;4.15;;;17.10;99.90;;;;;;4190090;28;20051;-61
2021/07/21 00:39:22;;;;;;;5.70;4.18;;;17.20;99.90;;;;;;4189202;28;20044;-63
2021/07/21 00:41:23;;;;;;;9.95;4.10;;;17.20;99.90;;;;;;4190406;28;20066;-62
2021/07/21 00:43:27;;;;;;;9.98;4.15;;;17.20;99.90;;;;;;4189894;28;20081;-62
2021/07/21 00:45:29;;;;;;;5.70;3.90;;;17.20;99.90;;;;;;4190252;28;20017;-62
2021/07/21 00:47:30;;;;;;;5.55;3.50;;;17.10;99.90;;;;;;4187896;28;20054;-63
2021/07/21 00:49:31;;;;;;;3.97;3.20;;;17.10;99.90;;;;;;4190440;28;20040;-64
2021/07/21 00:51:33;;;;;;;8.07;4.15;;;17.20;99.90;;;;;;4189321;28;20089;-62
2021/07/21 00:53:34;;;;;;;6.35;3.90;;;17.20;99.90;;;;;;4190031;28;20394;-62
2021/07/21 00:55:35;;;;;;;6.60;4.13;;;17.20;99.90;;;;;;4189044;28;20481;-62
2021/07/21 00:57:39;;;;;;;6.03;3.65;;;17.20;99.90;;;;;;4190715;28;20451;-61
2021/07/21 00:59:41;;;;;;;7.13;3.83;;;17.20;99.90;;;;;;4188983;28;20028;-62
2021/07/21 01:01:42;;;;;;;10.40;4.40;;;17.10;99.90;;;;;;4190840;28;20448;-62
2021/07/21 01:03:45;;;;;;;6.97;4.13;;;17.10;99.90;;;;;;4189205;28;20412;-62
2021/07/21 01:05:46;;;;;;;8.90;3.92;;;17.10;99.90;;;;;;4190434;28;20036;-61
2021/07/21 01:07:49;;;;;;;5.18;3.58;;;17.10;99.90;;;;;;4188995;28;20488;-62
2021/07/21 01:09:51;;;;;;;8.93;3.47;;;17.20;99.90;;;;;;4189533;28;20029;-63
2021/07/21 01:12:03;;;;;;;6.57;3.90;;;17.20;99.90;;;;;;4189307;28;20024;-62
2021/07/21 01:14:10;;;;;;;5.93;3.83;;;17.20;99.90;;;;;;4189150;28;20533;-62
2021/07/21 01:16:21;;;;;;;7.30;3.95;;;17.20;99.90;;;;;;4189442;28;20028;-62
2021/07/21 01:18:41;;;;;;;5.68;3.78;;;17.20;99.90;;;;;;4189319;28;20102;-62
2021/07/21 01:21:05;;;;;;;4.78;4.10;;;17.10;99.90;;;;;;4189129;28;20075;-62
2021/07/21 01:23:43;;;;;;;9.23;4.20;;;17.10;99.90;;;;;;4189796;28;20082;-63
2021/07/21 01:26:03;;;;;;;6.15;4.05;;;17.10;99.90;;;;;;4188719;28;20086;-64
2021/07/21 01:28:06;;;;;;;8.23;3.65;;;17.10;99.90;;;;;;4189906;28;20040;-62
2021/07/21 01:30:11;;;;;;;4.68;3.78;;;17.00;99.90;;;;;;4188324;28;20070;-62
2021/07/21 01:32:15;;;;;;;4.43;3.42;;;17.00;99.90;;;;;;4190091;28;20078;-61
2021/07/21 01:34:18;;;;;;;7.55;4.07;;;16.90;99.90;;;;;;4188750;28;20117;-63
2021/07/21 01:36:24;;;;;;;6.20;3.90;;;16.90;99.90;;;;;;4189788;28;20070;-63
2021/07/21 01:38:31;;;;;;;6.95;3.55;;;16.90;99.90;;;;;;4188588;28;20370;-63
2021/07/21 01:40:47;;;;;;;5.70;3.80;;;16.90;99.90;;;;;;4189636;28;20082;-64
2021/07/21 01:42:51;;;;;;;5.75;3.72;;;16.90;99.90;;;;;;4187320;28;20074;-63
2021/07/21 01:44:53;;;;;;;9.38;3.88;;;16.90;99.90;;;;;;4190400;28;20044;-62
2021/07/21 01:46:58;;;;;;;4.88;3.30;;;16.90;99.90;;;;;;4187979;28;20086;-66
2021/07/21 01:49:01;;;;;;;5.72;3.88;;;17.00;99.90;;;;;;4189725;28;20048;-65
2021/07/21 01:51:06;;;;;;;5.32;3.95;;;17.00;99.90;;;;;;4188570;28;20421;-63
2021/07/21 01:53:08;;;;;;;9.30;4.72;;;17.00;99.90;;;;;;4189130;28;20036;-64
2021/07/21 01:55:11;;;;;;;9.02;4.28;;;17.00;99.90;;;;;;4188912;28;20033;-66
2021/07/21 01:57:13;;;;;;;7.05;4.00;;;17.00;99.90;;;;;;4188638;28;20028;-67
2021/07/21 01:59:15;;;;;;;6.90;4.10;;;16.90;99.90;;;;;;4188048;28;20016;-67
2021/07/21 02:01:17;;;;;;;8.93;4.00;;;16.90;99.90;;;;;;4188042;28;20089;-63
2021/07/21 02:03:20;;;;;;;8.90;4.35;;;16.80;99.90;;;;;;4189500;28;20975;-64
2021/07/21 02:05:22;;;;;;;8.25;4.88;;;16.80;99.90;;;;;;4188754;28;20078;-63
2021/07/21 02:07:24;;;;;;;6.40;4.30;;;16.70;99.90;;;;;;4189446;28;20777;-63
2021/07/21 02:09:26;;;;;;;11.60;4.50;;;16.60;99.90;;;;;;4188282;28;20021;-61
2021/07/21 02:11:29;;;;;;;8.23;4.18;;;16.60;99.90;;;;;;4189768;28;20054;-64
2021/07/21 02:13:31;;;;;;;5.72;3.72;;;16.40;99.90;;;;;;4188676;28;20090;-65
2021/07/21 02:15:32;;;;;;;6.93;3.70;;;16.40;99.90;;;;;;4189589;28;20044;-66
2021/07/21 02:17:38;;;;;;;7.97;4.50;;;16.30;99.90;;;;;;4188303;28;20431;-64
2021/07/21 02:19:40;;;;;;;9.60;4.28;;;16.30;99.90;;;;;;4189848;28;20056;-65
2021/07/21 02:21:42;;;;;;;7.20;4.43;;;16.20;99.90;;;;;;4188380;28;20048;-65
2021/07/21 02:23:46;;;;;;;6.20;3.63;;;16.20;99.90;;;;;;4189053;28;20078;-63
2021/07/21 02:25:48;;;;;;;8.05;4.95;;;16.10;99.90;;;;;;4190228;28;20509;-62
2021/07/21 02:27:50;;;;;;;7.90;4.22;;;16.10;99.90;;;;;;4192492;28;20044;-62
2021/07/21 02:29:52;;;;;;;6.00;4.63;;;16.10;99.90;;;;;;4191496;28;20078;-62
2021/07/21 02:32:06;;;;;;;9.02;4.35;;;16.00;99.90;;;;;;4191693;28;20049;-62
2021/07/21 02:34:07;;;;;;;6.00;4.30;;;16.00;99.90;;;;;;4191479;28;20086;-64
2021/07/21 02:36:08;;;;;;;10.10;4.78;;;16.00;99.90;;;;;;4191152;28;20079;-61
2021/07/21 02:38:09;;;;;;;5.50;3.95;;;15.90;99.90;;;;;;4192192;28;20037;-63
2021/07/21 02:40:11;;;;;;;6.10;4.30;;;15.90;99.90;;;;;;4191161;28;20048;-63
2021/07/21 02:42:13;;;;;;;7.97;4.90;;;15.90;99.90;;;;;;4191682;28;20036;-61
2021/07/21 02:44:17;;;;;;;9.13;4.68;;;15.90;99.90;;;;;;4190956;28;20040;-62
2021/07/21 02:46:18;;;;;;;8.20;4.35;;;16.00;99.90;;;;;;4192321;28;20411;-64
2021/07/21 02:48:19;;;;;;;8.43;4.20;;;16.00;99.90;;;;;;4190720;28;20036;-62
2021/07/21 02:50:20;;;;;;;6.40;3.92;;;16.00;99.90;;;;;;4193041;28;20626;-63
2021/07/21 02:52:37;;;;;;;8.00;4.70;;;16.00;99.90;;;;;;4190380;28;20078;-62
2021/07/21 02:55:02;;;;;;;5.95;4.05;;;16.00;99.90;;;;;;4192456;28;20291;-63
2021/07/21 02:57:14;;;;;;;7.63;4.45;;;16.00;99.90;;;;;;4191016;28;20435;-65
2021/07/21 02:59:18;;;;;;;7.38;4.45;;;16.00;99.90;;;;;;4191267;28;20036;-61
2021/07/21 03:01:21;;;;;;;8.48;4.35;;;15.90;99.90;;;;;;4190725;28;20017;-64
2021/07/21 03:03:23;;;;;;;11.95;4.93;;;15.90;99.90;;;;;;4191893;28;20048;-64
2021/07/21 03:05:26;;;;;;;8.75;4.50;;;15.90;99.90;;;;;;4190884;28;20094;-64
2021/07/21 03:07:28;;;;;;;8.15;4.72;;;16.00;99.90;;;;;;4192210;28;20430;-63
2021/07/21 03:09:30;;;;;;;9.88;5.85;;;16.10;99.90;;;;;;4190896;28;20794;-64
2021/07/21 03:11:33;;;;;;;8.32;4.45;;;16.10;99.90;;;;;;4192424;28;20475;-63
2021/07/21 03:13:43;;;;;;;10.68;4.95;;;16.10;99.90;;;;;;4190793;28;20024;-63
2021/07/21 03:15:47;;;;;;;6.88;5.00;;;16.10;99.90;;;;;;4192151;28;20174;-64
2021/07/21 03:17:49;;;;;;;7.82;4.28;;;16.00;99.90;;;;;;4190992;28;20033;-62
2021/07/21 03:19:54;;;;;;;9.80;5.05;;;16.00;99.90;;;;;;4191639;28;20038;-62
2021/07/21 03:21:56;;;;;;;9.57;4.15;;;16.00;99.90;;;;;;4190867;28;20110;-62
2021/07/21 03:24:00;;;;;;;7.00;4.15;;;16.00;99.90;;;;;;4191134;28;20032;-63
2021/07/21 03:26:05;;;;;;;7.75;4.30;;;16.10;99.90;;;;;;4190719;28;20090;-62
2021/07/21 03:28:06;;;;;;;6.28;4.10;;;16.10;99.90;;;;;;4190904;28;20586;-62
2021/07/21 03:30:10;;;;;;;10.35;4.57;;;16.10;99.90;;;;;;4191574;28;20082;-64
2021/07/21 03:32:12;;;;;;;7.05;4.75;;;16.10;99.90;;;;;;4190477;28;20032;-63
2021/07/21 03:34:16;;;;;;;8.52;5.43;;;16.10;99.90;;;;;;4191257;28;20078;-61
2021/07/21 03:36:18;;;;;;;9.88;5.00;;;16.00;99.90;;;;;;4189566;28;20106;-62
2021/07/21 03:38:22;;;;;;;10.88;5.03;;;16.00;99.90;;;;;;4191088;28;20032;-62
2021/07/21 03:40:27;;;;;;;8.75;5.18;;;16.00;99.90;;;;;;4190517;28;20036;-61
2021/07/21 03:42:29;;;;;;;9.10;4.50;;;16.10;99.90;;;;;;4191262;28;20473;-62
2021/07/21 03:44:31;;;;;;;10.60;5.00;;;16.10;99.90;;;;;;4173713;28;20041;-65
2021/07/21 03:46:35;;;;;;;8.82;5.18;;;16.10;99.90;;;;;;4178541;28;20036;-64
2021/07/21 03:48:38;;;;;;;10.57;4.85;;;16.40;99.90;;;;;;4190173;28;20032;-63
2021/07/21 03:50:39;;;;;;;10.00;4.55;;;16.70;99.90;;;;;;4191565;28;20351;-62
2021/07/21 03:52:43;;;;;;;9.88;4.88;;;16.80;99.90;;;;;;4189900;28;20024;-63
2021/07/21 03:54:46;;;;;;;12.90;5.00;;;16.80;99.90;;;;;;4191232;28;20037;-62
2021/07/21 03:56:48;;;;;;;9.10;4.63;;;16.70;99.90;;;;;;4190139;28;20042;-62
2021/07/21 03:58:49;;;;;;;5.80;4.28;;;16.70;99.90;;;;;;4190720;28;20098;-63
2021/07/21 04:00:54;;;;;;;8.43;4.55;;;16.70;99.90;;;;;;4189827;28;20090;-63
2021/07/21 04:02:57;;;;;;;8.18;4.45;;;16.70;99.90;;;;;;4189721;28;20550;-62
2021/07/21 04:04:59;;;;;;;6.82;4.35;;;16.70;99.90;;;;;;4190068;28;20568;-63
2021/07/21 04:07:01;;;;;;;8.18;4.88;;;16.70;99.90;;;;;;4189826;28;20028;-65
2021/07/21 04:09:07;;;;;;;9.60;4.50;;;16.70;99.90;;;;;;4190320;28;20040;-62
2021/07/21 04:11:12;;;;;;;8.27;5.07;;;16.80;99.90;;;;;;4190167;28;20489;-63
2021/07/21 04:13:16;;;;;;;8.23;4.63;;;16.80;99.90;;;;;;4190662;28;20040;-63
2021/07/21 04:15:21;;;;;;;10.18;4.80;;;16.90;99.90;;;;;;4189932;28;20037;-65
2021/07/21 04:17:23;;;;;;;9.60;4.30;;;16.90;99.90;;;;;;4190689;28;20029;-65
2021/07/21 04:19:25;;;;;;;9.27;5.00;;;16.80;99.90;;;;;;4189932;28;20041;-62
2021/07/21 04:21:27;;;;;;;6.72;4.47;;;16.80;99.90;;;;;;4190918;28;20037;-61
2021/07/21 04:23:30;;;;;;;9.95;5.47;;;16.80;99.90;;;;;;4190044;28;20082;-62
2021/07/21 04:25:32;;;;;;;8.55;5.03;;;16.90;99.90;;;;;;4190818;28;20032;-62
2021/07/21 04:27:34;;;;;;;7.63;4.40;;;16.90;99.90;;;;;;4188592;28;20098;-62
2021/07/21 04:29:35;;;;;;;5.40;3.95;;;17.00;99.90;;;;;;4190230;28;20094;-62
2021/07/21 04:31:37;;;;;;;8.05;4.75;;;16.90;99.90;;;;;;4188721;28;21225;-61
2021/07/21 04:33:39;;;;;;;7.07;4.57;;;17.00;99.90;;;;;;4190310;28;20036;-63
2021/07/21 04:35:41;;;;;;;11.15;5.25;;;17.10;99.90;;;;;;4189447;28;20883;-62
2021/07/21 04:37:42;;;;;;;5.60;4.07;;;17.30;99.90;;;;;;4189698;28;20036;-62
2021/07/21 04:39:45;;;;;;;8.50;4.63;;;17.40;99.90;;;;;;4188792;28;20040;-63
2021/07/21 04:41:51;;;;;;;9.90;4.88;;;17.50;99.90;;;;;;4190238;28;20093;-63
2021/07/21 04:43:52;;;;;;;12.18;4.57;;;17.50;99.90;;;;;;4188309;28;20520;-62
2021/07/21 04:45:54;;;;;;;6.60;4.25;;;17.50;99.90;;;;;;4189115;28;20442;-62
2021/07/21 04:47:55;;;;;;;14.77;4.78;;;17.60;99.90;;;;;;4188558;28;20057;-62
2021/07/21 04:49:58;;;;;;;7.32;4.60;;;17.70;99.90;;;;;;4189607;28;20036;-63
2021/07/21 04:52:03;;;;;;;8.95;4.82;;;17.70;99.90;;;;;;4189934;28;20431;-62
2021/07/21 04:54:06;;;;;;;8.27;4.07;;;17.90;99.90;;;;;;4188752;28;20539;-64
2021/07/21 04:56:07;;;;;;;6.30;4.10;;;18.10;99.90;;;;;;4189827;28;20157;-62
2021/07/21 04:58:08;;;;;;;5.72;3.88;;;18.20;99.90;;;;;;4188642;28;20036;-63
2021/07/21 05:00:10;;;;;;;6.82;4.35;;;18.40;99.90;;;;;;4189680;28;20093;-62
2021/07/21 05:02:11;;;;;;;7.35;4.00;;;18.40;99.90;;;;;;4189127;28;20036;-62
2021/07/21 05:04:12;;;;;;;8.32;4.53;;;18.60;99.90;;;;;;4189959;28;20037;-64
2021/07/21 05:06:13;;;;;;;8.82;4.88;;;18.80;99.90;;;;;;4188783;28;20028;-64
2021/07/21 05:08:15;;;;;;;7.97;4.53;;;18.90;99.90;;;;;;4189024;28;20440;-63
2021/07/21 05:10:16;;;;;;;7.60;4.57;;;19.20;99.90;;;;;;4189282;28;20024;-61
2021/07/21 05:12:17;;;;;;;7.70;4.30;;;19.90;99.90;;;;;;4189952;28;20036;-62
2021/07/21 05:14:18;;;;;;;6.22;3.95;;;20.50;99.90;;;;;;4188553;28;20029;-61
2021/07/21 05:16:19;;;;;;;12.52;4.05;;;21.00;99.90;;;;;;4189351;28;20032;-62
2021/07/21 05:18:20;;;;;;;9.23;4.30;;;21.70;99.90;;;;;;4188217;28;20036;-62
2021/07/21 05:20:22;;;;;;;7.32;3.95;;;22.20;99.90;;;;;;4189159;28;20436;-61
2021/07/21 05:22:23;;;;;;;8.20;3.47;;;22.70;99.90;;;;;;4187620;28;20815;-61
2021/07/21 05:24:25;;;;;;;6.13;4.15;;;23.30;99.90;;;;;;4188452;28;20033;-61
2021/07/21 05:26:26;;;;;;;4.95;3.30;;;23.10;99.90;;;;;;4189495;28;20528;-62
2021/07/21 05:28:27;;;;;;;5.78;3.60;;;22.80;99.90;;;;;;4188514;28;20588;-63
2021/07/21 05:30:28;;;;;;;7.80;3.95;;;22.70;99.90;;;;;;4189961;28;20040;-64
2021/07/21 05:32:30;;;;;;;6.13;3.80;;;23.10;99.90;;;;;;4188025;28;20040;-63
2021/07/21 05:34:31;;;;;;;7.05;3.80;;;23.20;99.90;;;;;;4189255;28;20286;-63
2021/07/21 05:36:36;;;;;;;7.80;4.30;;;23.10;99.90;;;;;;4187627;28;20044;-63
2021/07/21 05:38:37;;;;;;;6.47;3.78;;;23.80;99.90;;;;;;4188756;28;20106;-62
2021/07/21 05:40:38;;;;;;;8.68;3.45;;;23.80;99.90;;;;;;4188054;28;20040;-63
2021/07/21 05:42:39;;;;;;;7.15;3.45;;;23.80;99.90;;;;;;4189448;28;20036;-63
2021/07/21 05:44:41;;;;;;;7.28;3.53;;;23.70;99.90;;;;;;4188348;28;20040;-64
2021/07/21 05:46:42;;;;;;;7.32;3.72;;;23.80;99.90;;;;;;4189067;28;20024;-64
2021/07/21 05:48:43;;;;;;;7.07;3.85;;;23.70;99.90;;;;;;4188268;28;20106;-64
2021/07/21 05:50:44;;;;;;;4.50;3.55;;;23.40;99.90;;;;;;4189206;28;20713;-64
2021/07/21 05:52:46;;;;;;;4.22;3.42;;;23.20;99.90;;;;;;4188802;28;20052;-64
2021/07/21 05:54:47;;;;;;;6.15;3.72;;;22.90;99.90;;;;;;4182312;28;20468;-64
2021/07/21 05:56:48;;;;;;;4.22;3.22;;;22.60;99.90;;;;;;4182860;28;20097;-61
2021/07/21 05:58:49;;;;;;;6.95;3.42;;;22.40;99.90;;;;;;4173933;28;20493;-63
2021/07/21 06:00:50;;;;;;;6.75;3.55;;;22.00;99.90;;;;;;4183785;28;20181;-64
2021/07/21 06:02:51;;;;;;;7.38;3.65;;;22.00;99.90;;;;;;4188279;28;20827;-64
2021/07/21 06:04:52;;;;;;;6.28;3.80;;;21.90;99.90;;;;;;4187071;28;20040;-62
2021/07/21 06:06:54;;;;;;;5.45;3.30;;;21.60;99.90;;;;;;4186937;28;20526;-63
2021/07/21 06:08:55;;;;;;;5.72;3.70;;;21.50;99.90;;;;;;4188906;28;20048;-63
2021/07/21 06:10:57;;;;;;;4.28;3.60;;;21.30;99.90;;;;;;4187548;28;20086;-63
2021/07/21 06:12:58;;;;;;;5.28;3.40;;;21.30;99.90;;;;;;4187963;28;20020;-62
2021/07/21 06:15:00;;;;;;;6.80;3.67;;;21.30;99.90;;;;;;4182328;28;20025;-63
2021/07/21 06:17:02;;;;;;;3.88;3.25;;;21.10;99.90;;;;;;4180370;28;20484;-63
2021/07/21 06:19:04;;;;;;;5.47;3.72;;;20.90;99.90;;;;;;4183235;28;20028;-62
2021/07/21 06:21:05;;;;;;;4.95;3.60;;;21.00;99.90;;;;;;4187377;28;20472;-61
2021/07/21 06:23:06;;;;;;;6.55;3.05;;;21.50;99.90;;;;;;4187194;28;20599;-61
2021/07/21 06:25:09;;;;;;;6.60;3.38;;;21.90;99.90;;;;;;4187356;28;20017;-62
2021/07/21 06:27:10;;;;;;;5.22;3.17;;;22.20;99.90;;;;;;4187683;28;20074;-63
2021/07/21 06:29:11;;;;;;;4.65;3.03;;;22.30;99.90;;;;;;4186443;28;20050;-62
2021/07/21 06:31:12;;;;;;;5.00;3.33;;;22.20;99.90;;;;;;4187591;28;20036;-62
2021/07/21 06:33:17;;;;;;;4.97;3.30;;;22.10;99.90;;;;;;4176183;28;20036;-62
2021/07/21 06:35:19;;;;;;;6.80;3.83;;;21.80;99.90;;;;;;4175600;28;20063;-62
2021/07/21 06:37:22;;;;;;;4.82;3.22;;;21.60;99.90;;;;;;4185339;28;20075;-62
2021/07/21 06:39:23;;;;;;;6.13;3.30;;;21.30;99.90;;;;;;4179634;28;20110;-65
2021/07/21 06:41:24;;;;;;;4.30;3.45;;;21.20;99.90;;;;;;4182135;28;20063;-61
2021/07/21 06:43:26;;;;;;;6.65;3.13;;;21.00;99.90;;;;;;4174401;28;20527;-61
2021/07/21 06:45:27;;;;;;;7.47;3.38;;;20.90;99.90;;;;;;4174492;28;20088;-61
2021/07/21 06:47:28;;;;;;;6.97;3.72;;;21.00;99.90;;;;;;4170993;28;20650;-63
2021/07/21 06:49:30;;;;;;;5.25;3.50;;;21.00;99.90;;;;;;4185776;28;20037;-62
2021/07/21 06:51:31;;;;;;;8.40;3.72;;;21.10;99.90;;;;;;4187375;28;20020;-65
2021/07/21 06:53:32;;;;;;;7.72;3.28;;;21.30;99.90;;;;;;4187329;28;20501;-62
2021/07/21 06:55:33;;;;;;;8.25;3.47;;;21.30;99.90;;;;;;4187970;28;20078;-63
2021/07/21 06:57:34;;;;;;;6.60;3.60;;;21.40;99.90;;;;;;4188078;28;20040;-62
2021/07/21 06:59:36;;;;;;;4.75;3.33;;;21.50;99.90;;;;;;4187767;28;20020;-63
2021/07/21 07:01:38;;;;;;;6.43;3.30;;;21.60;99.90;;;;;;4186184;28;20118;-61
2021/07/21 07:03:39;;;;;;;6.70;3.80;;;21.50;99.90;;;;;;4186759;28;20036;-62
2021/07/21 07:05:40;;;;;;;3.80;3.20;;;21.50;99.90;;;;;;4188205;28;20203;-63
2021/07/21 07:07:42;;;;;;;6.30;3.70;;;21.40;99.90;;;;;;4186799;28;20087;-63
2021/07/21 07:09:43;;;;;;;5.65;3.13;;;21.30;99.90;;;;;;4188351;28;20851;-61
2021/07/21 07:11:44;;;;;;;6.00;3.33;;;21.10;99.90;;;;;;4188274;28;20154;-62
2021/07/21 07:13:45;;;;;;;5.13;3.00;;;21.10;99.90;;;;;;4191606;28;20098;-62
2021/07/21 07:15:49;;;;;;;6.45;3.58;;;21.00;99.90;;;;;;4190337;28;20086;-61
2021/07/21 07:17:50;;;;;;;5.45;3.20;;;20.90;99.90;;;;;;4191382;28;20028;-67
2021/07/21 07:19:52;;;;;;;6.40;3.90;;;20.80;99.90;;;;;;4189344;28;20028;-62
2021/07/21 07:21:53;;;;;;;5.45;3.78;;;20.90;99.90;;;;;;4191186;28;20487;-63
2021/07/21 07:23:55;;;;;;;7.03;3.75;;;21.00;99.90;;;;;;4189974;28;20082;-64
2021/07/21 07:25:56;;;;;;;5.45;3.67;;;21.20;99.90;;;;;;4190920;28;20179;-65
2021/07/21 07:27:57;;;;;;;6.45;3.92;;;21.40;99.90;;;;;;4190799;28;20032;-65
2021/07/21 07:29:59;;;;;;;7.18;4.10;;;21.40;99.90;;;;;;4190776;28;20447;-64
2021/07/21 07:32:01;;;;;;;6.85;4.03;;;21.40;99.90;;;;;;4190501;28;20446;-64
2021/07/21 07:34:02;;;;;;;10.00;4.28;;;21.30;99.90;;;;;;4190426;28;20451;-63
2021/07/21 07:36:05;;;;;;;12.68;5.15;;;21.30;99.90;;;;;;4191053;28;20032;-62
2021/07/21 07:38:11;;;;;;;6.15;4.55;;;21.30;99.90;;;;;;4189954;28;20048;-63
2021/07/21 07:40:12;;;;;;;8.93;4.40;;;21.20;99.90;;;;;;4190893;28;20181;-65
2021/07/21 07:42:13;;;;;;;7.88;4.20;;;21.50;99.90;;;;;;4190145;28;20032;-62
2021/07/21 07:44:14;;;;;;;7.63;3.97;;;21.80;99.90;;;;;;4190662;28;20109;-61
2021/07/21 07:46:16;;;;;;;7.97;4.75;;;22.10;99.90;;;;;;4189872;28;20534;-61
2021/07/21 07:48:17;;;;;;;8.57;5.43;;;22.40;99.90;;;;;;4190852;28;20704;-61
2021/07/21 07:50:18;;;;;;;5.63;4.05;;;22.50;99.90;;;;;;4190778;28;20481;-62
2021/07/21 07:52:19;;;;;;;8.40;4.38;;;22.50;99.90;;;;;;4190909;28;20036;-63
2021/07/21 07:54:21;;;;;;;27.48;16.25;;;22.50;99.90;;;;;;4189822;28;20036;-60
2021/07/21 07:56:22;;;;;;;4.43;3.47;;;22.30;99.90;;;;;;4190455;28;20016;-62
2021/07/21 07:58:24;;;;;;;10.13;4.43;;;22.30;99.90;;;;;;4189586;28;20033;-63
2021/07/21 08:00:25;;;;;;;5.35;4.00;;;22.40;99.90;;;;;;4189887;28;20090;-63
2021/07/21 08:02:26;;;;;;;7.10;4.32;;;22.60;99.90;;;;;;4189672;28;20066;-63
2021/07/21 08:04:27;;;;;;;6.38;3.95;;;22.70;99.90;;;;;;4190044;28;20090;-63
2021/07/21 08:06:28;;;;;;;7.72;4.38;;;22.70;99.90;;;;;;4190289;28;20086;-64
2021/07/21 08:08:29;;;;;;;6.78;4.50;;;22.80;99.90;;;;;;4187100;28;20574;-64
2021/07/21 08:10:31;;;;;;;8.18;4.55;;;22.80;99.90;;;;;;4189757;28;20546;-63
2021/07/21 08:12:32;;;;;;;8.73;4.57;;;22.90;99.90;;;;;;4188816;28;20036;-64
2021/07/21 08:14:33;;;;;;;10.50;4.22;;;22.90;99.90;;;;;;4190729;28;20036;-63
2021/07/21 08:16:34;;;;;;;11.32;5.50;;;22.90;99.90;;;;;;4187586;28;20066;-63
2021/07/21 08:18:36;;;;;;;7.75;4.28;;;23.00;99.90;;;;;;4189692;28;20086;-63
2021/07/21 08:20:37;;;;;;;6.72;4.32;;;23.10;99.90;;;;;;4188873;28;20032;-64
2021/07/21 08:22:41;;;;;;;5.22;4.28;;;23.30;99.90;;;;;;4188940;28;20055;-63
2021/07/21 08:24:42;;;;;;;4.93;4.10;;;23.40;99.90;;;;;;4188257;28;20036;-63
2021/07/21 08:26:44;;;;;;;6.55;3.92;;;23.30;99.90;;;;;;4188930;28;20101;-62
2021/07/21 08:28:45;;;;;;;7.78;4.63;;;23.10;99.90;;;;;;4188277;28;20056;-64
2021/07/21 08:30:47;;;;;;;5.78;3.95;;;22.90;99.90;;;;;;4189481;28;20114;-64
2021/07/21 08:32:51;;;;;;;6.70;3.80;;;22.80;99.90;;;;;;4188269;28;20447;-65
2021/07/21 08:34:52;;;;;;;9.65;4.38;;;22.80;99.90;;;;;;4188824;28;20082;-64
2021/07/21 08:36:53;;;;;;;6.75;4.13;;;22.80;99.90;;;;;;4189065;28;20439;-64
2021/07/21 08:38:54;;;;;;;8.75;5.53;;;22.80;99.90;;;;;;4186061;28;20127;-63
2021/07/21 08:40:56;;;;;;;6.75;4.32;;;22.70;99.90;;;;;;4188890;28;20540;-65
2021/07/21 08:42:58;;;;;;;7.53;4.18;;;22.50;99.90;;;;;;4187883;28;20423;-63
2021/07/21 08:45:00;;;;;;;9.45;5.50;;;22.30;99.90;;;;;;4189283;28;20964;-65
2021/07/21 08:47:01;;;;;;;11.45;6.72;;;22.20;99.90;;;;;;4187883;28;20028;-70
2021/07/21 08:49:07;;;;;;;166.73;76.80;;;22.10;99.90;;;;;;4189183;28;20066;-66
2021/07/21 08:51:10;;;;;;;6.95;4.75;;;22.00;99.90;;;;;;4187799;28;20538;-64
2021/07/21 08:53:14;;;;;;;11.30;5.07;;;21.80;99.90;;;;;;4189533;28;20089;-64
2021/07/21 08:55:15;;;;;;;9.18;4.90;;;21.70;99.90;;;;;;4187894;28;20028;-65
2021/07/21 08:57:16;;;;;;;8.70;4.80;;;21.50;99.90;;;;;;4187519;28;20036;-69
2021/07/21 08:59:18;;;;;;;9.45;5.25;;;21.40;99.90;;;;;;4189037;28;20025;-66
2021/07/21 09:01:19;;;;;;;9.90;4.88;;;21.30;99.90;;;;;;4187821;28;20044;-66
2021/07/21 09:03:21;;;;;;;5.82;4.50;;;21.20;99.90;;;;;;4188684;28;20048;-65
2021/07/21 09:05:22;;;;;;;10.80;5.65;;;21.20;99.90;;;;;;4188545;28;20032;-65
2021/07/21 09:07:23;;;;;;;8.25;5.28;;;21.20;99.90;;;;;;4188823;28;20048;-62
2021/07/21 09:09:24;;;;;;;7.20;5.22;;;21.10;99.90;;;;;;4188044;28;20467;-62
2021/07/21 09:11:26;;;;;;;10.10;6.32;;;20.90;99.90;;;;;;4188803;28;20056;-61
2021/07/21 09:13:27;;;;;;;7.82;6.07;;;20.90;99.90;;;;;;4188087;28;20024;-62
2021/07/21 09:15:28;;;;;;;15.65;7.32;;;20.80;99.90;;;;;;4188721;28;20052;-62
2021/07/21 09:17:31;;;;;;;8.57;6.05;;;20.90;99.90;;;;;;4187887;28;20101;-65
2021/07/21 09:19:34;;;;;;;10.95;5.85;;;20.90;99.90;;;;;;4189401;28;20434;-64
2021/07/21 09:21:35;;;;;;;19.77;12.52;;;20.90;99.90;;;;;;4184300;28;20074;-63
2021/07/21 09:23:36;;;;;;;9.88;6.15;;;20.90;99.90;;;;;;4188095;28;20040;-64
2021/07/21 09:25:39;;;;;;;10.82;6.15;;;20.80;99.90;;;;;;4187809;28;20100;-63
2021/07/21 09:27:42;;;;;;;15.30;6.13;;;20.80;99.90;;;;;;4188321;28;20060;-64
2021/07/21 09:29:51;;;;;;;7.47;4.82;;;20.80;99.90;;;;;;4187397;28;20045;-63
2021/07/21 09:31:54;;;;;;;6.57;5.18;;;20.70;99.90;;;;;;4188704;28;20032;-64
2021/07/21 09:33:56;;;;;;;11.82;5.82;;;20.70;99.90;;;;;;4187667;28;20036;-63
2021/07/21 09:35:58;;;;;;;6.63;5.03;;;20.60;99.90;;;;;;4188204;28;20024;-64
2021/07/21 09:38:06;;;;;;;6.53;5.38;;;20.60;99.90;;;;;;4187457;28;20619;-64
2021/07/21 09:40:08;;;;;;;7.65;5.38;;;20.60;99.90;;;;;;4188833;28;20551;-64
2021/07/21 09:42:10;;;;;;;10.93;5.90;;;20.60;99.90;;;;;;4188238;28;20078;-65
2021/07/21 09:44:11;;;;;;;10.25;5.18;;;20.50;99.90;;;;;;4187431;28;20101;-65
2021/07/21 09:46:14;;;;;;;13.35;6.32;;;20.50;99.90;;;;;;4187234;28;20040;-65
2021/07/21 09:48:18;;;;;;;9.05;5.55;;;20.40;99.90;;;;;;4187492;28;20020;-64
2021/07/21 09:50:26;;;;;;;8.10;4.93;;;20.50;99.90;;;;;;4187452;28;20048;-66
2021/07/21 09:52:27;;;;;;;8.77;5.30;;;20.40;99.90;;;;;;4187778;28;20092;-65
2021/07/21 09:54:29;;;;;;;7.75;5.65;;;20.50;99.90;;;;;;4189383;28;20765;-66
2021/07/21 09:56:32;;;;;;;10.73;5.80;;;20.60;99.90;;;;;;4187788;28;20093;-65
2021/07/21 09:58:34;;;;;;;9.05;5.45;;;20.50;99.90;;;;;;4189175;28;20048;-65
2021/07/21 10:00:37;;;;;;;7.97;5.22;;;20.40;99.90;;;;;;4188213;28;20560;-65
2021/07/21 10:02:38;;;;;;;8.35;5.95;;;20.20;99.90;;;;;;4189040;28;20089;-65
2021/07/21 10:04:41;;;;;;;9.15;5.80;;;20.20;99.90;;;;;;4187698;28;20102;-65
2021/07/21 10:06:42;;;;;;;12.43;5.95;;;20.20;99.90;;;;;;4188861;28;20041;-65
2021/07/21 10:08:52;;;;;;;9.27;5.80;;;20.20;99.90;;;;;;4188099;28;20060;-65
2021/07/21 10:10:54;;;;;;;8.80;5.82;;;20.20;99.90;;;;;;4187337;28;20539;-64
2021/07/21 10:13:06;;;;;;;7.88;5.60;;;20.20;99.90;;;;;;4187129;28;20040;-64
2021/07/21 10:15:08;;;;;;;12.13;6.25;;;20.10;99.90;;;;;;4188721;28;20078;-65
2021/07/21 10:17:15;;;;;;;7.60;5.45;;;20.00;99.90;;;;;;4188805;28;20044;-66
2021/07/21 10:19:21;;;;;;;8.35;5.75;;;19.90;99.90;;;;;;4188787;28;20118;-68
2021/07/21 10:21:23;;;;;;;8.00;5.75;;;19.80;99.90;;;;;;4188188;28;20021;-63
2021/07/21 10:23:26;;;;;;;9.80;5.80;;;19.80;99.90;;;;;;4188439;28;20078;-64
2021/07/21 10:25:27;;;;;;;16.85;7.22;;;19.80;99.90;;;;;;4188017;28;20565;-64
2021/07/21 10:27:29;;;;;;;11.05;5.95;;;19.80;99.90;;;;;;4188049;28;20086;-64
2021/07/21 10:29:30;;;;;;;12.23;5.90;;;19.90;99.90;;;;;;4188461;28;20036;-64
2021/07/21 10:31:32;;;;;;;8.70;5.70;;;19.90;99.90;;;;;;4188070;28;20028;-65
2021/07/21 10:33:35;;;;;;;11.02;7.75;;;19.80;99.90;;;;;;4188427;28;20036;-65
2021/07/21 10:35:36;;;;;;;11.40;7.45;;;19.80;99.90;;;;;;4187480;28;20426;-64
2021/07/21 10:37:38;;;;;;;8.82;6.35;;;19.70;99.90;;;;;;4188754;28;20115;-66
2021/07/21 10:39:39;;;;;;;11.38;6.97;;;19.60;99.90;;;;;;4187045;28;20106;-65